McElhattan, Pennsylvania
Current Conditions -  °F | °C
As of 8:54 AM on Tuesday 21 Oct 2014 (Local Time) from KIPT Reporting Station
Overcast Overcast  
Wind Chill: 49°   Ceiling: 3400
Heat Index: 49°   Visibility: 10mi
Dew Point: 46°   Wind: 0mph
Humidity: 90%   Direction: NA
Pressure: 29.86"   Gusts: NA
Location:  41.16°N, 77.36°W
Report Text: KIPT 211254Z 00000KT 10SM OVC034 09/08 A2986 RMK AO2 RAB19E30 SLP113 P0000 T00940078
Loading
Personal Weather Stations






























Interactive Weather Map New forecast layout! Learn more

10-Day Weather Forecast

Advertisements
Track Severe Weather on mobile